sensor_id;sensor_type;location;lat;lon;timestamp;P1;durP1;ratioP1;P2;durP2;ratioP2
9834;SDS011;4956;50.996;13.716;2022-10-16T00:03:11;3.13;;;2.83;;
9834;SDS011;4956;50.996;13.716;2022-10-16T00:06:31;3.20;;;2.80;;
9834;SDS011;4956;50.996;13.716;2022-10-16T00:09:52;2.95;;;2.75;;
9834;SDS011;4956;50.996;13.716;2022-10-16T00:13:12;3.72;;;3.42;;
9834;SDS011;4956;50.996;13.716;2022-10-16T00:16:33;3.88;;;3.55;;
9834;SDS011;4956;50.996;13.716;2022-10-16T00:19:54;3.15;;;2.80;;
9834;SDS011;4956;50.996;13.716;2022-10-16T00:23:14;3.58;;;2.78;;
9834;SDS011;4956;50.996;13.716;2022-10-16T00:26:35;2.10;;;2.00;;
9834;SDS011;4956;50.996;13.716;2022-10-16T00:29:56;2.92;;;2.38;;
9834;SDS011;4956;50.996;13.716;2022-10-16T00:33:17;2.50;;;2.30;;
9834;SDS011;4956;50.996;13.716;2022-10-16T00:36:37;2.40;;;2.20;;
9834;SDS011;4956;50.996;13.716;2022-10-16T00:39:58;2.28;;;2.08;;
9834;SDS011;4956;50.996;13.716;2022-10-16T00:46:58;2.28;;;2.17;;
9834;SDS011;4956;50.996;13.716;2022-10-16T00:50:22;2.75;;;2.53;;
9834;SDS011;4956;50.996;13.716;2022-10-16T00:53:47;2.53;;;2.30;;
9834;SDS011;4956;50.996;13.716;2022-10-16T00:57:08;2.60;;;2.40;;
9834;SDS011;4956;50.996;13.716;2022-10-16T01:00:28;2.60;;;2.40;;
9834;SDS011;4956;50.996;13.716;2022-10-16T01:03:49;2.63;;;2.42;;
9834;SDS011;4956;50.996;13.716;2022-10-16T01:07:15;3.08;;;2.78;;
9834;SDS011;4956;50.996;13.716;2022-10-16T01:10:47;3.95;;;2.75;;
9834;SDS011;4956;50.996;13.716;2022-10-16T01:14:16;2.70;;;2.50;;
9834;SDS011;4956;50.996;13.716;2022-10-16T01:21:33;3.70;;;2.95;;
9834;SDS011;4956;50.996;13.716;2022-10-16T01:24:55;3.30;;;3.00;;
9834;SDS011;4956;50.996;13.716;2022-10-16T01:28:18;3.00;;;2.80;;
9834;SDS011;4956;50.996;13.716;2022-10-16T01:31:39;3.17;;;2.90;;
9834;SDS011;4956;50.996;13.716;2022-10-16T01:35:05;2.80;;;2.60;;
9834;SDS011;4956;50.996;13.716;2022-10-16T01:38:36;3.42;;;2.80;;
9834;SDS011;4956;50.996;13.716;2022-10-16T01:42:00;2.90;;;2.70;;
9834;SDS011;4956;50.996;13.716;2022-10-16T01:45:24;3.17;;;2.70;;
9834;SDS011;4956;50.996;13.716;2022-10-16T01:48:44;2.92;;;2.65;;
9834;SDS011;4956;50.996;13.716;2022-10-16T01:52:06;3.13;;;2.58;;
9834;SDS011;4956;50.996;13.716;2022-10-16T01:55:31;3.35;;;3.05;;
9834;SDS011;4956;50.996;13.716;2022-10-16T01:58:54;3.13;;;2.70;;
9834;SDS011;4956;50.996;13.716;2022-10-16T02:02:17;2.72;;;2.53;;
9834;SDS011;4956;50.996;13.716;2022-10-16T02:05:46;3.35;;;2.90;;
9834;SDS011;4956;50.996;13.716;2022-10-16T02:09:11;2.90;;;2.70;;
9834;SDS011;4956;50.996;13.716;2022-10-16T02:12:32;3.10;;;2.80;;
9834;SDS011;4956;50.996;13.716;2022-10-16T02:15:53;2.60;;;2.40;;
9834;SDS011;4956;50.996;13.716;2022-10-16T02:19:16;2.53;;;2.33;;
9834;SDS011;4956;50.996;13.716;2022-10-16T02:22:41;2.50;;;2.30;;
9834;SDS011;4956;50.996;13.716;2022-10-16T02:26:04;2.60;;;2.40;;
9834;SDS011;4956;50.996;13.716;2022-10-16T02:29:27;3.03;;;2.72;;
9834;SDS011;4956;50.996;13.716;2022-10-16T02:32:48;3.00;;;2.80;;
9834;SDS011;4956;50.996;13.716;2022-10-16T02:36:09;3.28;;;3.00;;
9834;SDS011;4956;50.996;13.716;2022-10-16T02:39:29;4.28;;;3.42;;
9834;SDS011;4956;50.996;13.716;2022-10-16T02:42:51;3.92;;;3.60;;
9834;SDS011;4956;50.996;13.716;2022-10-16T02:46:12;4.15;;;3.75;;
9834;SDS011;4956;50.996;13.716;2022-10-16T02:49:32;4.55;;;3.80;;
9834;SDS011;4956;50.996;13.716;2022-10-16T02:52:52;4.30;;;3.90;;
9834;SDS011;4956;50.996;13.716;2022-10-16T02:56:13;3.92;;;3.63;;
9834;SDS011;4956;50.996;13.716;2022-10-16T02:59:33;4.20;;;3.80;;
9834;SDS011;4956;50.996;13.716;2022-10-16T03:02:54;3.42;;;3.13;;
9834;SDS011;4956;50.996;13.716;2022-10-16T03:06:14;3.58;;;3.05;;
9834;SDS011;4956;50.996;13.716;2022-10-16T03:09:35;3.50;;;3.20;;
9834;SDS011;4956;50.996;13.716;2022-10-16T03:12:55;3.53;;;3.20;;
9834;SDS011;4956;50.996;13.716;2022-10-16T03:16:15;3.95;;;3.63;;
9834;SDS011;4956;50.996;13.716;2022-10-16T03:19:35;4.15;;;3.75;;
9834;SDS011;4956;50.996;13.716;2022-10-16T03:22:56;4.13;;;3.72;;
9834;SDS011;4956;50.996;13.716;2022-10-16T03:26:16;4.18;;;3.78;;
9834;SDS011;4956;50.996;13.716;2022-10-16T03:29:37;4.28;;;3.95;;
9834;SDS011;4956;50.996;13.716;2022-10-16T03:32:57;3.97;;;3.58;;
9834;SDS011;4956;50.996;13.716;2022-10-16T03:36:17;3.40;;;3.10;;
9834;SDS011;4956;50.996;13.716;2022-10-16T03:39:37;3.50;;;3.20;;
9834;SDS011;4956;50.996;13.716;2022-10-16T03:42:58;3.22;;;2.92;;
9834;SDS011;4956;50.996;13.716;2022-10-16T03:46:19;3.00;;;2.70;;
9834;SDS011;4956;50.996;13.716;2022-10-16T03:49:39;2.90;;;2.70;;
9834;SDS011;4956;50.996;13.716;2022-10-16T03:52:59;2.70;;;2.50;;
9834;SDS011;4956;50.996;13.716;2022-10-16T03:56:20;3.00;;;2.70;;
9834;SDS011;4956;50.996;13.716;2022-10-16T03:59:40;4.75;;;2.67;;
9834;SDS011;4956;50.996;13.716;2022-10-16T04:03:00;3.38;;;2.83;;
9834;SDS011;4956;50.996;13.716;2022-10-16T04:06:21;2.35;;;2.15;;
9834;SDS011;4956;50.996;13.716;2022-10-16T04:09:41;2.47;;;2.28;;
9834;SDS011;4956;50.996;13.716;2022-10-16T04:13:02;3.88;;;2.35;;
9834;SDS011;4956;50.996;13.716;2022-10-16T04:16:22;2.35;;;2.15;;
9834;SDS011;4956;50.996;13.716;2022-10-16T04:19:42;2.25;;;2.03;;
9834;SDS011;4956;50.996;13.716;2022-10-16T04:23:03;2.20;;;2.00;;
9834;SDS011;4956;50.996;13.716;2022-10-16T04:26:23;2.60;;;2.20;;
9834;SDS011;4956;50.996;13.716;2022-10-16T04:29:43;2.30;;;2.10;;
9834;SDS011;4956;50.996;13.716;2022-10-16T04:33:04;2.20;;;2.00;;
9834;SDS011;4956;50.996;13.716;2022-10-16T04:36:24;2.58;;;2.15;;
9834;SDS011;4956;50.996;13.716;2022-10-16T04:39:44;2.00;;;1.90;;
9834;SDS011;4956;50.996;13.716;2022-10-16T04:43:05;2.15;;;1.95;;
9834;SDS011;4956;50.996;13.716;2022-10-16T04:46:29;2.20;;;2.10;;
9834;SDS011;4956;50.996;13.716;2022-10-16T04:49:49;2.15;;;1.95;;
9834;SDS011;4956;50.996;13.716;2022-10-16T04:53:09;2.55;;;1.90;;
9834;SDS011;4956;50.996;13.716;2022-10-16T04:56:30;1.90;;;1.80;;
9834;SDS011;4956;50.996;13.716;2022-10-16T04:59:50;2.15;;;1.95;;
9834;SDS011;4956;50.996;13.716;2022-10-16T05:03:11;2.15;;;2.00;;
9834;SDS011;4956;50.996;13.716;2022-10-16T05:06:32;1.73;;;1.55;;
9834;SDS011;4956;50.996;13.716;2022-10-16T05:09:53;1.90;;;1.80;;
9834;SDS011;4956;50.996;13.716;2022-10-16T05:13:13;1.80;;;1.70;;
9834;SDS011;4956;50.996;13.716;2022-10-16T05:16:33;2.13;;;1.92;;
9834;SDS011;4956;50.996;13.716;2022-10-16T05:19:54;1.88;;;1.77;;
9834;SDS011;4956;50.996;13.716;2022-10-16T05:23:14;3.17;;;2.35;;
9834;SDS011;4956;50.996;13.716;2022-10-16T05:26:35;3.15;;;2.88;;
9834;SDS011;4956;50.996;13.716;2022-10-16T05:29:55;3.47;;;3.17;;
9834;SDS011;4956;50.996;13.716;2022-10-16T05:33:16;3.40;;;3.10;;
9834;SDS011;4956;50.996;13.716;2022-10-16T05:36:36;4.13;;;3.72;;
9834;SDS011;4956;50.996;13.716;2022-10-16T05:39:56;3.95;;;3.60;;
9834;SDS011;4956;50.996;13.716;2022-10-16T05:43:17;4.20;;;3.80;;
9834;SDS011;4956;50.996;13.716;2022-10-16T05:46:37;4.45;;;3.47;;
9834;SDS011;4956;50.996;13.716;2022-10-16T05:49:57;3.30;;;3.00;;
9834;SDS011;4956;50.996;13.716;2022-10-16T05:53:18;3.38;;;3.08;;
9834;SDS011;4956;50.996;13.716;2022-10-16T05:56:45;3.55;;;3.25;;
9834;SDS011;4956;50.996;13.716;2022-10-16T06:00:05;3.05;;;2.83;;
9834;SDS011;4956;50.996;13.716;2022-10-16T06:03:33;3.70;;;3.20;;
9834;SDS011;4956;50.996;13.716;2022-10-16T06:06:54;3.60;;;3.30;;
9834;SDS011;4956;50.996;13.716;2022-10-16T06:10:14;3.60;;;3.30;;
9834;SDS011;4956;50.996;13.716;2022-10-16T06:13:34;3.45;;;3.15;;
9834;SDS011;4956;50.996;13.716;2022-10-16T06:16:55;3.63;;;3.33;;
9834;SDS011;4956;50.996;13.716;2022-10-16T06:20:15;3.70;;;3.40;;
9834;SDS011;4956;50.996;13.716;2022-10-16T06:23:36;3.88;;;3.58;;
9834;SDS011;4956;50.996;13.716;2022-10-16T06:26:56;3.70;;;3.40;;
9834;SDS011;4956;50.996;13.716;2022-10-16T06:30:17;3.67;;;3.38;;
9834;SDS011;4956;50.996;13.716;2022-10-16T06:33:37;4.07;;;3.40;;
9834;SDS011;4956;50.996;13.716;2022-10-16T06:36:58;3.50;;;3.20;;
9834;SDS011;4956;50.996;13.716;2022-10-16T06:40:19;3.80;;;3.42;;
9834;SDS011;4956;50.996;13.716;2022-10-16T06:43:39;3.47;;;3.17;;
9834;SDS011;4956;50.996;13.716;2022-10-16T06:46:59;3.13;;;2.92;;
9834;SDS011;4956;50.996;13.716;2022-10-16T06:50:20;3.00;;;2.80;;
9834;SDS011;4956;50.996;13.716;2022-10-16T06:53:41;3.10;;;2.90;;
9834;SDS011;4956;50.996;13.716;2022-10-16T06:57:03;2.63;;;2.42;;
9834;SDS011;4956;50.996;13.716;2022-10-16T07:00:23;2.55;;;2.25;;
9834;SDS011;4956;50.996;13.716;2022-10-16T07:03:44;2.60;;;2.40;;
9834;SDS011;4956;50.996;13.716;2022-10-16T07:07:05;2.50;;;1.70;;
9834;SDS011;4956;50.996;13.716;2022-10-16T07:10:25;1.42;;;1.33;;
9834;SDS011;4956;50.996;13.716;2022-10-16T07:13:47;1.40;;;1.30;;
9834;SDS011;4956;50.996;13.716;2022-10-16T07:17:07;1.02;;;1.02;;
9834;SDS011;4956;50.996;13.716;2022-10-16T07:20:28;2.15;;;1.17;;
9834;SDS011;4956;50.996;13.716;2022-10-16T07:23:52;1.48;;;1.15;;
9834;SDS011;4956;50.996;13.716;2022-10-16T07:27:13;1.35;;;0.90;;
9834;SDS011;4956;50.996;13.716;2022-10-16T07:30:34;1.10;;;1.00;;
9834;SDS011;4956;50.996;13.716;2022-10-16T07:33:58;1.15;;;0.98;;
9834;SDS011;4956;50.996;13.716;2022-10-16T07:37:19;1.20;;;1.02;;
9834;SDS011;4956;50.996;13.716;2022-10-16T07:40:41;0.85;;;0.85;;
9834;SDS011;4956;50.996;13.716;2022-10-16T07:44:02;0.70;;;0.70;;
9834;SDS011;4956;50.996;13.716;2022-10-16T07:47:23;0.50;;;0.50;;
9834;SDS011;4956;50.996;13.716;2022-10-16T07:50:44;0.60;;;0.60;;
9834;SDS011;4956;50.996;13.716;2022-10-16T07:54:04;0.60;;;0.60;;
9834;SDS011;4956;50.996;13.716;2022-10-16T07:57:25;0.63;;;0.60;;
9834;SDS011;4956;50.996;13.716;2022-10-16T08:00:45;0.80;;;0.77;;
9834;SDS011;4956;50.996;13.716;2022-10-16T08:04:06;0.75;;;0.60;;
9834;SDS011;4956;50.996;13.716;2022-10-16T08:07:26;0.50;;;0.50;;
9834;SDS011;4956;50.996;13.716;2022-10-16T08:10:46;0.55;;;0.55;;
9834;SDS011;4956;50.996;13.716;2022-10-16T08:14:07;1.77;;;0.60;;
9834;SDS011;4956;50.996;13.716;2022-10-16T08:17:27;1.35;;;0.80;;
9834;SDS011;4956;50.996;13.716;2022-10-16T08:20:47;0.70;;;0.70;;
9834;SDS011;4956;50.996;13.716;2022-10-16T08:24:08;3.50;;;3.10;;
9834;SDS011;4956;50.996;13.716;2022-10-16T08:27:31;4.50;;;4.10;;
9834;SDS011;4956;50.996;13.716;2022-10-16T08:30:52;4.50;;;3.90;;
9834;SDS011;4956;50.996;13.716;2022-10-16T08:34:13;4.90;;;3.90;;
9834;SDS011;4956;50.996;13.716;2022-10-16T08:37:33;5.75;;;4.60;;
9834;SDS011;4956;50.996;13.716;2022-10-16T08:40:54;8.02;;;7.22;;
9834;SDS011;4956;50.996;13.716;2022-10-16T08:44:30;8.35;;;7.47;;
9834;SDS011;4956;50.996;13.716;2022-10-16T08:51:35;6.32;;;5.72;;
9834;SDS011;4956;50.996;13.716;2022-10-16T08:54:56;4.97;;;4.40;;
9834;SDS011;4956;50.996;13.716;2022-10-16T08:58:18;3.50;;;3.20;;
9834;SDS011;4956;50.996;13.716;2022-10-16T09:01:44;2.38;;;2.17;;
9834;SDS011;4956;50.996;13.716;2022-10-16T09:16:14;1.13;;;1.05;;
9834;SDS011;4956;50.996;13.716;2022-10-16T09:19:44;1.15;;;1.02;;
9834;SDS011;4956;50.996;13.716;2022-10-16T09:23:14;1.15;;;1.05;;
9834;SDS011;4956;50.996;13.716;2022-10-16T09:26:39;1.00;;;0.90;;
9834;SDS011;4956;50.996;13.716;2022-10-16T09:29:59;1.25;;;1.15;;
9834;SDS011;4956;50.996;13.716;2022-10-16T09:33:21;0.85;;;0.85;;
9834;SDS011;4956;50.996;13.716;2022-10-16T09:36:43;0.82;;;0.82;;
9834;SDS011;4956;50.996;13.716;2022-10-16T09:40:05;2.40;;;2.20;;
9834;SDS011;4956;50.996;13.716;2022-10-16T09:43:26;1.10;;;0.90;;
9834;SDS011;4956;50.996;13.716;2022-10-16T09:47:01;1.85;;;0.80;;
9834;SDS011;4956;50.996;13.716;2022-10-16T09:50:26;0.70;;;0.70;;
9834;SDS011;4956;50.996;13.716;2022-10-16T09:53:47;0.60;;;0.60;;
9834;SDS011;4956;50.996;13.716;2022-10-16T09:57:10;0.40;;;0.40;;
9834;SDS011;4956;50.996;13.716;2022-10-16T10:00:32;1.35;;;1.23;;
9834;SDS011;4956;50.996;13.716;2022-10-16T10:03:55;0.60;;;0.60;;
9834;SDS011;4956;50.996;13.716;2022-10-16T10:07:23;0.98;;;0.50;;
9834;SDS011;4956;50.996;13.716;2022-10-16T10:10:47;1.02;;;0.70;;
9834;SDS011;4956;50.996;13.716;2022-10-16T10:14:16;0.68;;;0.60;;
9834;SDS011;4956;50.996;13.716;2022-10-16T10:17:57;0.70;;;0.70;;
9834;SDS011;4956;50.996;13.716;2022-10-16T10:21:17;0.65;;;0.65;;
9834;SDS011;4956;50.996;13.716;2022-10-16T10:24:38;0.70;;;0.70;;
9834;SDS011;4956;50.996;13.716;2022-10-16T10:32:06;1.67;;;0.93;;
9834;SDS011;4956;50.996;13.716;2022-10-16T10:35:35;1.13;;;0.93;;
9834;SDS011;4956;50.996;13.716;2022-10-16T10:39:12;1.70;;;0.73;;
9834;SDS011;4956;50.996;13.716;2022-10-16T10:42:44;1.55;;;0.50;;
9834;SDS011;4956;50.996;13.716;2022-10-16T10:46:24;1.30;;;0.55;;
9834;SDS011;4956;50.996;13.716;2022-10-16T10:50:07;0.65;;;0.50;;
9834;SDS011;4956;50.996;13.716;2022-10-16T11:01:01;0.47;;;0.40;;
9834;SDS011;4956;50.996;13.716;2022-10-16T11:08:19;1.85;;;0.50;;
9834;SDS011;4956;50.996;13.716;2022-10-16T11:11:46;0.60;;;0.50;;
9834;SDS011;4956;50.996;13.716;2022-10-16T11:15:14;0.75;;;0.40;;
9834;SDS011;4956;50.996;13.716;2022-10-16T11:18:46;0.93;;;0.50;;
9834;SDS011;4956;50.996;13.716;2022-10-16T11:25:59;1.05;;;0.75;;
9834;SDS011;4956;50.996;13.716;2022-10-16T11:29:23;0.63;;;0.40;;
9834;SDS011;4956;50.996;13.716;2022-10-16T11:32:50;2.17;;;0.65;;
9834;SDS011;4956;50.996;13.716;2022-10-16T11:36:34;1.98;;;0.57;;
9834;SDS011;4956;50.996;13.716;2022-10-16T11:40:03;0.40;;;0.40;;
9834;SDS011;4956;50.996;13.716;2022-10-16T11:43:43;0.40;;;0.40;;
9834;SDS011;4956;50.996;13.716;2022-10-16T11:51:05;0.40;;;0.40;;
9834;SDS011;4956;50.996;13.716;2022-10-16T11:57:57;0.40;;;0.38;;
9834;SDS011;4956;50.996;13.716;2022-10-16T12:01:25;0.60;;;0.60;;
9834;SDS011;4956;50.996;13.716;2022-10-16T12:04:52;1.35;;;0.55;;
9834;SDS011;4956;50.996;13.716;2022-10-16T12:08:39;1.48;;;0.75;;
9834;SDS011;4956;50.996;13.716;2022-10-16T12:12:00;1.33;;;0.60;;
9834;SDS011;4956;50.996;13.716;2022-10-16T12:15:27;0.40;;;0.40;;
9834;SDS011;4956;50.996;13.716;2022-10-16T12:18:48;0.40;;;0.40;;
9834;SDS011;4956;50.996;13.716;2022-10-16T12:22:15;0.60;;;0.60;;
9834;SDS011;4956;50.996;13.716;2022-10-16T12:25:39;1.45;;;0.32;;
9834;SDS011;4956;50.996;13.716;2022-10-16T12:29:13;0.30;;;0.30;;
9834;SDS011;4956;50.996;13.716;2022-10-16T12:33:00;0.95;;;0.60;;
9834;SDS011;4956;50.996;13.716;2022-10-16T12:36:32;0.35;;;0.35;;
9834;SDS011;4956;50.996;13.716;2022-10-16T12:39:54;0.45;;;0.45;;
9834;SDS011;4956;50.996;13.716;2022-10-16T12:43:23;0.60;;;0.30;;
9834;SDS011;4956;50.996;13.716;2022-10-16T12:46:47;2.17;;;0.43;;
9834;SDS011;4956;50.996;13.716;2022-10-16T12:50:23;0.63;;;0.40;;
9834;SDS011;4956;50.996;13.716;2022-10-16T12:53:45;0.40;;;0.40;;
9834;SDS011;4956;50.996;13.716;2022-10-16T12:57:30;1.48;;;0.35;;
9834;SDS011;4956;50.996;13.716;2022-10-16T13:01:09;0.40;;;0.40;;
9834;SDS011;4956;50.996;13.716;2022-10-16T13:15:22;0.50;;;0.50;;
9834;SDS011;4956;50.996;13.716;2022-10-16T13:23:24;0.73;;;0.50;;
9834;SDS011;4956;50.996;13.716;2022-10-16T13:26:39;1.00;;;0.50;;
9834;SDS011;4956;50.996;13.716;2022-10-16T13:30:23;3.72;;;0.57;;
9834;SDS011;4956;50.996;13.716;2022-10-16T13:33:49;2.65;;;0.80;;
9834;SDS011;4956;50.996;13.716;2022-10-16T13:37:18;0.60;;;0.50;;
9834;SDS011;4956;50.996;13.716;2022-10-16T13:40:49;0.80;;;0.50;;
9834;SDS011;4956;50.996;13.716;2022-10-16T13:44:14;0.40;;;0.40;;
9834;SDS011;4956;50.996;13.716;2022-10-16T13:47:36;0.50;;;0.50;;
9834;SDS011;4956;50.996;13.716;2022-10-16T13:54:24;0.52;;;0.50;;
9834;SDS011;4956;50.996;13.716;2022-10-16T13:57:45;0.55;;;0.55;;
9834;SDS011;4956;50.996;13.716;2022-10-16T14:01:15;0.70;;;0.57;;
9834;SDS011;4956;50.996;13.716;2022-10-16T14:04:37;0.57;;;0.50;;
9834;SDS011;4956;50.996;13.716;2022-10-16T14:07:58;0.82;;;0.50;;
9834;SDS011;4956;50.996;13.716;2022-10-16T14:11:22;0.40;;;0.40;;
9834;SDS011;4956;50.996;13.716;2022-10-16T14:14:47;0.60;;;0.60;;
9834;SDS011;4956;50.996;13.716;2022-10-16T14:18:13;1.42;;;0.60;;
9834;SDS011;4956;50.996;13.716;2022-10-16T14:21:40;1.15;;;0.80;;
9834;SDS011;4956;50.996;13.716;2022-10-16T14:25:02;0.85;;;0.52;;
9834;SDS011;4956;50.996;13.716;2022-10-16T14:28:40;0.47;;;0.47;;
9834;SDS011;4956;50.996;13.716;2022-10-16T14:32:02;0.60;;;0.60;;
9834;SDS011;4956;50.996;13.716;2022-10-16T14:35:28;1.02;;;0.50;;
9834;SDS011;4956;50.996;13.716;2022-10-16T14:38:53;0.60;;;0.60;;
9834;SDS011;4956;50.996;13.716;2022-10-16T14:42:19;0.70;;;0.70;;
9834;SDS011;4956;50.996;13.716;2022-10-16T14:45:40;0.50;;;0.50;;
9834;SDS011;4956;50.996;13.716;2022-10-16T14:49:23;0.88;;;0.80;;
9834;SDS011;4956;50.996;13.716;2022-10-16T14:52:43;0.90;;;0.70;;
9834;SDS011;4956;50.996;13.716;2022-10-16T14:56:07;0.98;;;0.60;;
9834;SDS011;4956;50.996;13.716;2022-10-16T14:59:33;0.98;;;0.70;;
9834;SDS011;4956;50.996;13.716;2022-10-16T15:02:56;1.42;;;0.75;;
9834;SDS011;4956;50.996;13.716;2022-10-16T15:06:16;1.58;;;0.85;;
9834;SDS011;4956;50.996;13.716;2022-10-16T15:09:37;1.75;;;0.80;;
9834;SDS011;4956;50.996;13.716;2022-10-16T15:12:57;1.25;;;0.90;;
9834;SDS011;4956;50.996;13.716;2022-10-16T15:16:17;1.83;;;1.20;;
9834;SDS011;4956;50.996;13.716;2022-10-16T15:19:38;2.80;;;1.70;;
9834;SDS011;4956;50.996;13.716;2022-10-16T15:22:58;3.75;;;1.80;;
9834;SDS011;4956;50.996;13.716;2022-10-16T15:26:20;3.05;;;1.90;;
9834;SDS011;4956;50.996;13.716;2022-10-16T15:29:40;2.50;;;1.60;;
9834;SDS011;4956;50.996;13.716;2022-10-16T15:33:00;2.28;;;1.70;;
9834;SDS011;4956;50.996;13.716;2022-10-16T15:36:39;1.50;;;1.30;;
9834;SDS011;4956;50.996;13.716;2022-10-16T15:40:00;1.52;;;1.05;;
9834;SDS011;4956;50.996;13.716;2022-10-16T15:43:20;1.15;;;1.05;;
9834;SDS011;4956;50.996;13.716;2022-10-16T15:46:41;1.38;;;1.08;;
9834;SDS011;4956;50.996;13.716;2022-10-16T15:50:01;1.42;;;1.20;;
9834;SDS011;4956;50.996;13.716;2022-10-16T15:53:21;2.22;;;1.35;;
9834;SDS011;4956;50.996;13.716;2022-10-16T15:56:42;2.00;;;1.80;;
9834;SDS011;4956;50.996;13.716;2022-10-16T16:00:02;2.30;;;2.00;;
9834;SDS011;4956;50.996;13.716;2022-10-16T16:03:32;1.63;;;1.52;;
9834;SDS011;4956;50.996;13.716;2022-10-16T16:06:52;1.70;;;1.60;;
9834;SDS011;4956;50.996;13.716;2022-10-16T16:10:13;1.98;;;1.65;;
9834;SDS011;4956;50.996;13.716;2022-10-16T16:13:33;1.50;;;1.40;;
9834;SDS011;4956;50.996;13.716;2022-10-16T16:16:54;4.10;;;2.75;;
9834;SDS011;4956;50.996;13.716;2022-10-16T16:20:15;4.13;;;2.40;;
9834;SDS011;4956;50.996;13.716;2022-10-16T16:23:36;3.25;;;1.85;;
9834;SDS011;4956;50.996;13.716;2022-10-16T16:26:58;6.25;;;2.65;;
9834;SDS011;4956;50.996;13.716;2022-10-16T16:30:19;4.15;;;2.25;;
9834;SDS011;4956;50.996;13.716;2022-10-16T16:33:40;2.50;;;1.75;;
9834;SDS011;4956;50.996;13.716;2022-10-16T16:37:00;3.10;;;1.90;;
9834;SDS011;4956;50.996;13.716;2022-10-16T16:40:20;2.90;;;1.80;;
9834;SDS011;4956;50.996;13.716;2022-10-16T16:43:41;3.50;;;2.40;;
9834;SDS011;4956;50.996;13.716;2022-10-16T16:47:02;3.80;;;2.80;;
9834;SDS011;4956;50.996;13.716;2022-10-16T16:50:23;3.58;;;2.92;;
9834;SDS011;4956;50.996;13.716;2022-10-16T16:53:44;4.45;;;2.97;;
9834;SDS011;4956;50.996;13.716;2022-10-16T16:57:06;2.97;;;2.55;;
9834;SDS011;4956;50.996;13.716;2022-10-16T17:00:26;3.35;;;2.75;;
9834;SDS011;4956;50.996;13.716;2022-10-16T17:03:47;3.53;;;2.55;;
9834;SDS011;4956;50.996;13.716;2022-10-16T17:07:09;3.13;;;2.65;;
9834;SDS011;4956;50.996;13.716;2022-10-16T17:10:29;2.63;;;2.30;;
9834;SDS011;4956;50.996;13.716;2022-10-16T17:13:50;3.03;;;2.45;;
9834;SDS011;4956;50.996;13.716;2022-10-16T17:17:12;4.07;;;3.40;;
9834;SDS011;4956;50.996;13.716;2022-10-16T17:20:35;5.00;;;3.58;;
9834;SDS011;4956;50.996;13.716;2022-10-16T17:23:55;4.43;;;3.10;;
9834;SDS011;4956;50.996;13.716;2022-10-16T17:27:19;3.75;;;2.67;;
9834;SDS011;4956;50.996;13.716;2022-10-16T17:30:40;2.75;;;2.50;;
9834;SDS011;4956;50.996;13.716;2022-10-16T17:34:02;3.35;;;2.50;;
9834;SDS011;4956;50.996;13.716;2022-10-16T17:37:24;2.78;;;2.38;;
9834;SDS011;4956;50.996;13.716;2022-10-16T17:40:44;2.80;;;2.30;;
9834;SDS011;4956;50.996;13.716;2022-10-16T17:44:05;3.33;;;3.03;;
9834;SDS011;4956;50.996;13.716;2022-10-16T17:47:26;4.80;;;3.05;;
9834;SDS011;4956;50.996;13.716;2022-10-16T17:50:47;3.95;;;2.53;;
9834;SDS011;4956;50.996;13.716;2022-10-16T17:54:08;2.17;;;1.98;;
9834;SDS011;4956;50.996;13.716;2022-10-16T17:57:30;2.22;;;1.92;;
9834;SDS011;4956;50.996;13.716;2022-10-16T18:00:50;2.78;;;1.92;;
9834;SDS011;4956;50.996;13.716;2022-10-16T18:04:12;2.33;;;1.90;;
9834;SDS011;4956;50.996;13.716;2022-10-16T18:07:34;2.17;;;1.80;;
9834;SDS011;4956;50.996;13.716;2022-10-16T18:10:54;1.80;;;1.58;;
9834;SDS011;4956;50.996;13.716;2022-10-16T18:14:15;1.75;;;1.60;;
9834;SDS011;4956;50.996;13.716;2022-10-16T18:17:36;2.22;;;1.60;;
9834;SDS011;4956;50.996;13.716;2022-10-16T18:20:58;1.52;;;1.42;;
9834;SDS011;4956;50.996;13.716;2022-10-16T18:24:20;1.60;;;1.50;;
9834;SDS011;4956;50.996;13.716;2022-10-16T18:27:40;1.90;;;1.70;;
9834;SDS011;4956;50.996;13.716;2022-10-16T18:31:02;2.92;;;2.17;;
9834;SDS011;4956;50.996;13.716;2022-10-16T18:34:24;2.80;;;2.20;;
9834;SDS011;4956;50.996;13.716;2022-10-16T18:37:46;2.40;;;2.20;;
9834;SDS011;4956;50.996;13.716;2022-10-16T18:41:06;2.15;;;1.95;;
9834;SDS011;4956;50.996;13.716;2022-10-16T18:44:26;3.28;;;2.10;;
9834;SDS011;4956;50.996;13.716;2022-10-16T18:47:47;2.90;;;1.83;;
9834;SDS011;4956;50.996;13.716;2022-10-16T18:51:12;2.28;;;1.88;;
9834;SDS011;4956;50.996;13.716;2022-10-16T18:54:35;3.25;;;2.35;;
9834;SDS011;4956;50.996;13.716;2022-10-16T18:57:56;2.33;;;2.00;;
9834;SDS011;4956;50.996;13.716;2022-10-16T19:01:18;2.70;;;1.90;;
9834;SDS011;4956;50.996;13.716;2022-10-16T19:04:40;2.55;;;2.10;;
9834;SDS011;4956;50.996;13.716;2022-10-16T19:08:00;3.35;;;2.00;;
9834;SDS011;4956;50.996;13.716;2022-10-16T19:11:21;2.60;;;1.80;;
9834;SDS011;4956;50.996;13.716;2022-10-16T19:14:42;2.35;;;1.52;;
9834;SDS011;4956;50.996;13.716;2022-10-16T19:18:03;1.70;;;1.40;;
9834;SDS011;4956;50.996;13.716;2022-10-16T19:21:23;1.92;;;1.60;;
9834;SDS011;4956;50.996;13.716;2022-10-16T19:24:45;2.70;;;1.63;;
9834;SDS011;4956;50.996;13.716;2022-10-16T19:28:05;2.00;;;1.80;;
9834;SDS011;4956;50.996;13.716;2022-10-16T19:31:29;1.92;;;1.70;;
9834;SDS011;4956;50.996;13.716;2022-10-16T19:34:49;1.77;;;1.50;;
9834;SDS011;4956;50.996;13.716;2022-10-16T19:38:10;2.72;;;1.63;;
9834;SDS011;4956;50.996;13.716;2022-10-16T19:41:31;2.15;;;1.95;;
9834;SDS011;4956;50.996;13.716;2022-10-16T19:44:51;2.78;;;2.00;;
9834;SDS011;4956;50.996;13.716;2022-10-16T19:48:12;2.72;;;2.50;;
9834;SDS011;4956;50.996;13.716;2022-10-16T19:51:32;3.97;;;2.63;;
9834;SDS011;4956;50.996;13.716;2022-10-16T19:54:53;2.70;;;2.38;;
9834;SDS011;4956;50.996;13.716;2022-10-16T19:58:17;3.17;;;2.40;;
9834;SDS011;4956;50.996;13.716;2022-10-16T20:01:37;3.33;;;2.28;;
9834;SDS011;4956;50.996;13.716;2022-10-16T20:04:58;2.45;;;2.20;;
9834;SDS011;4956;50.996;13.716;2022-10-16T20:08:19;1.88;;;1.75;;
9834;SDS011;4956;50.996;13.716;2022-10-16T20:11:39;1.92;;;1.80;;
9834;SDS011;4956;50.996;13.716;2022-10-16T20:15:00;2.13;;;1.92;;
9834;SDS011;4956;50.996;13.716;2022-10-16T20:18:21;2.13;;;1.65;;
9834;SDS011;4956;50.996;13.716;2022-10-16T20:21:41;2.15;;;1.88;;
9834;SDS011;4956;50.996;13.716;2022-10-16T20:25:02;4.13;;;1.67;;
9834;SDS011;4956;50.996;13.716;2022-10-16T20:28:23;3.15;;;1.77;;
9834;SDS011;4956;50.996;13.716;2022-10-16T20:31:43;1.98;;;1.70;;
9834;SDS011;4956;50.996;13.716;2022-10-16T20:35:04;2.15;;;1.60;;
9834;SDS011;4956;50.996;13.716;2022-10-16T20:38:25;1.75;;;1.65;;
9834;SDS011;4956;50.996;13.716;2022-10-16T20:41:45;2.08;;;1.88;;
9834;SDS011;4956;50.996;13.716;2022-10-16T20:45:06;2.15;;;1.80;;
9834;SDS011;4956;50.996;13.716;2022-10-16T20:48:26;2.65;;;2.15;;
9834;SDS011;4956;50.996;13.716;2022-10-16T20:51:47;1.80;;;1.67;;
9834;SDS011;4956;50.996;13.716;2022-10-16T20:55:08;1.80;;;1.70;;
9834;SDS011;4956;50.996;13.716;2022-10-16T20:58:31;1.85;;;1.70;;
9834;SDS011;4956;50.996;13.716;2022-10-16T21:01:51;1.60;;;1.48;;
9834;SDS011;4956;50.996;13.716;2022-10-16T21:05:12;1.63;;;1.52;;
9834;SDS011;4956;50.996;13.716;2022-10-16T21:08:36;3.20;;;2.13;;
9834;SDS011;4956;50.996;13.716;2022-10-16T21:11:57;2.97;;;2.30;;
9834;SDS011;4956;50.996;13.716;2022-10-16T21:15:17;2.35;;;1.80;;
9834;SDS011;4956;50.996;13.716;2022-10-16T21:18:37;2.08;;;1.88;;
9834;SDS011;4956;50.996;13.716;2022-10-16T21:21:58;1.63;;;1.52;;
9834;SDS011;4956;50.996;13.716;2022-10-16T21:25:18;3.05;;;1.60;;
9834;SDS011;4956;50.996;13.716;2022-10-16T21:28:38;1.70;;;1.50;;
9834;SDS011;4956;50.996;13.716;2022-10-16T21:31:59;2.50;;;1.83;;
9834;SDS011;4956;50.996;13.716;2022-10-16T21:35:19;2.03;;;1.67;;
9834;SDS011;4956;50.996;13.716;2022-10-16T21:38:40;2.22;;;1.70;;
9834;SDS011;4956;50.996;13.716;2022-10-16T21:42:00;2.10;;;1.40;;
9834;SDS011;4956;50.996;13.716;2022-10-16T21:45:21;1.65;;;1.55;;
9834;SDS011;4956;50.996;13.716;2022-10-16T21:48:41;1.77;;;1.58;;